sensor_id;sensor_type;location;lat;lon;timestamp;P1;durP1;ratioP1;P2;durP2;ratioP2
77531;SDS011;70100;44.486;0.266;2023-12-20T00:04:09;37.07;;;19.60;;
77531;SDS011;70100;44.486;0.266;2023-12-20T00:09:42;45.33;;;22.30;;
77531;SDS011;70100;44.486;0.266;2023-12-20T00:15:15;46.27;;;19.60;;
77531;SDS011;70100;44.486;0.266;2023-12-20T00:20:48;-1.00;;;-1.00;;
77531;SDS011;70100;44.486;0.266;2023-12-20T00:26:21;43.53;;;18.87;;
77531;SDS011;70100;44.486;0.266;2023-12-20T00:31:53;44.67;;;19.87;;
77531;SDS011;70100;44.486;0.266;2023-12-20T00:37:26;41.10;;;18.43;;
77531;SDS011;70100;44.486;0.266;2023-12-20T00:42:59;46.03;;;18.17;;
77531;SDS011;70100;44.486;0.266;2023-12-20T00:48:31;43.00;;;16.93;;
77531;SDS011;70100;44.486;0.266;2023-12-20T00:54:03;32.40;;;12.40;;
77531;SDS011;70100;44.486;0.266;2023-12-20T00:59:37;44.80;;;16.93;;
77531;SDS011;70100;44.486;0.266;2023-12-20T01:05:09;50.63;;;19.00;;
77531;SDS011;70100;44.486;0.266;2023-12-20T01:10:41;51.27;;;16.87;;
77531;SDS011;70100;44.486;0.266;2023-12-20T01:16:13;61.40;;;18.00;;
77531;SDS011;70100;44.486;0.266;2023-12-20T01:21:47;49.60;;;19.23;;
77531;SDS011;70100;44.486;0.266;2023-12-20T01:27:20;40.03;;;16.03;;
77531;SDS011;70100;44.486;0.266;2023-12-20T01:32:53;47.70;;;16.53;;
77531;SDS011;70100;44.486;0.266;2023-12-20T01:38:25;36.10;;;14.17;;
77531;SDS011;70100;44.486;0.266;2023-12-20T01:43:56;37.03;;;13.20;;
77531;SDS011;70100;44.486;0.266;2023-12-20T01:49:30;29.93;;;13.70;;
77531;SDS011;70100;44.486;0.266;2023-12-20T01:55:05;37.20;;;14.10;;
77531;SDS011;70100;44.486;0.266;2023-12-20T02:00:35;34.13;;;14.67;;
77531;SDS011;70100;44.486;0.266;2023-12-20T02:06:07;32.87;;;13.23;;
77531;SDS011;70100;44.486;0.266;2023-12-20T02:11:39;23.30;;;10.67;;
77531;SDS011;70100;44.486;0.266;2023-12-20T02:17:11;19.93;;;9.53;;
77531;SDS011;70100;44.486;0.266;2023-12-20T02:22:44;24.60;;;10.60;;
77531;SDS011;70100;44.486;0.266;2023-12-20T02:28:16;21.43;;;11.20;;
77531;SDS011;70100;44.486;0.266;2023-12-20T02:33:48;11.07;;;6.50;;
77531;SDS011;70100;44.486;0.266;2023-12-20T02:39:22;16.43;;;8.80;;
77531;SDS011;70100;44.486;0.266;2023-12-20T02:44:55;24.47;;;9.70;;
77531;SDS011;70100;44.486;0.266;2023-12-20T02:50:28;18.97;;;8.30;;
77531;SDS011;70100;44.486;0.266;2023-12-20T02:56:00;19.80;;;9.97;;
77531;SDS011;70100;44.486;0.266;2023-12-20T03:01:32;17.83;;;8.43;;
77531;SDS011;70100;44.486;0.266;2023-12-20T03:07:05;16.67;;;6.90;;
77531;SDS011;70100;44.486;0.266;2023-12-20T03:12:38;16.97;;;7.63;;
77531;SDS011;70100;44.486;0.266;2023-12-20T03:18:11;18.27;;;8.90;;
77531;SDS011;70100;44.486;0.266;2023-12-20T03:23:44;19.03;;;7.97;;
77531;SDS011;70100;44.486;0.266;2023-12-20T03:29:17;18.67;;;7.27;;
77531;SDS011;70100;44.486;0.266;2023-12-20T03:34:50;18.73;;;7.40;;
77531;SDS011;70100;44.486;0.266;2023-12-20T03:40:23;18.87;;;6.93;;
77531;SDS011;70100;44.486;0.266;2023-12-20T03:45:58;16.33;;;6.47;;
77531;SDS011;70100;44.486;0.266;2023-12-20T03:51:30;50.77;;;17.60;;
77531;SDS011;70100;44.486;0.266;2023-12-20T04:02:35;85.03;;;19.53;;
77531;SDS011;70100;44.486;0.266;2023-12-20T04:08:09;-1.00;;;-1.00;;
77531;SDS011;70100;44.486;0.266;2023-12-20T04:13:41;66.03;;;13.37;;
77531;SDS011;70100;44.486;0.266;2023-12-20T04:19:14;16.60;;;7.97;;
77531;SDS011;70100;44.486;0.266;2023-12-20T04:30:19;6.80;;;3.83;;
77531;SDS011;70100;44.486;0.266;2023-12-20T04:35:53;4.37;;;2.73;;
77531;SDS011;70100;44.486;0.266;2023-12-20T04:41:25;4.40;;;2.20;;
77531;SDS011;70100;44.486;0.266;2023-12-20T04:46:58;4.17;;;2.87;;
77531;SDS011;70100;44.486;0.266;2023-12-20T04:52:31;1.87;;;1.60;;
77531;SDS011;70100;44.486;0.266;2023-12-20T04:58:04;2.80;;;1.70;;
77531;SDS011;70100;44.486;0.266;2023-12-20T05:03:36;2.67;;;1.70;;
77531;SDS011;70100;44.486;0.266;2023-12-20T05:09:10;4.10;;;2.70;;
77531;SDS011;70100;44.486;0.266;2023-12-20T05:14:43;3.73;;;2.43;;
77531;SDS011;70100;44.486;0.266;2023-12-20T05:20:15;3.27;;;2.07;;
77531;SDS011;70100;44.486;0.266;2023-12-20T05:25:48;3.60;;;2.43;;
77531;SDS011;70100;44.486;0.266;2023-12-20T05:31:21;5.60;;;3.90;;
77531;SDS011;70100;44.486;0.266;2023-12-20T05:36:53;5.93;;;2.83;;
77531;SDS011;70100;44.486;0.266;2023-12-20T05:42:26;4.27;;;2.20;;
77531;SDS011;70100;44.486;0.266;2023-12-20T05:47:59;5.00;;;2.93;;
77531;SDS011;70100;44.486;0.266;2023-12-20T05:53:30;6.43;;;3.70;;
77531;SDS011;70100;44.486;0.266;2023-12-20T05:59:02;5.37;;;2.23;;
77531;SDS011;70100;44.486;0.266;2023-12-20T06:04:35;7.33;;;2.70;;
77531;SDS011;70100;44.486;0.266;2023-12-20T06:10:08;7.53;;;4.73;;
77531;SDS011;70100;44.486;0.266;2023-12-20T06:15:41;2.90;;;1.73;;
77531;SDS011;70100;44.486;0.266;2023-12-20T06:21:13;8.87;;;5.10;;
77531;SDS011;70100;44.486;0.266;2023-12-20T06:26:45;3.97;;;2.40;;
77531;SDS011;70100;44.486;0.266;2023-12-20T06:32:18;2.77;;;1.60;;
77531;SDS011;70100;44.486;0.266;2023-12-20T06:37:52;2.20;;;1.70;;
77531;SDS011;70100;44.486;0.266;2023-12-20T06:43:24;7.47;;;2.57;;
77531;SDS011;70100;44.486;0.266;2023-12-20T06:48:58;8.43;;;2.53;;
77531;SDS011;70100;44.486;0.266;2023-12-20T06:54:30;5.53;;;2.20;;
77531;SDS011;70100;44.486;0.266;2023-12-20T07:00:04;2.47;;;2.13;;
77531;SDS011;70100;44.486;0.266;2023-12-20T07:05:36;2.70;;;2.50;;
77531;SDS011;70100;44.486;0.266;2023-12-20T07:11:09;3.00;;;1.53;;
77531;SDS011;70100;44.486;0.266;2023-12-20T07:16:41;3.63;;;2.53;;
77531;SDS011;70100;44.486;0.266;2023-12-20T07:22:14;5.80;;;1.90;;
77531;SDS011;70100;44.486;0.266;2023-12-20T07:27:46;4.67;;;2.20;;
77531;SDS011;70100;44.486;0.266;2023-12-20T07:33:18;3.33;;;2.37;;
77531;SDS011;70100;44.486;0.266;2023-12-20T07:38:50;6.37;;;2.27;;
77531;SDS011;70100;44.486;0.266;2023-12-20T07:44:23;2.00;;;1.20;;
77531;SDS011;70100;44.486;0.266;2023-12-20T07:49:56;6.37;;;1.37;;
77531;SDS011;70100;44.486;0.266;2023-12-20T07:55:29;2.53;;;1.20;;
77531;SDS011;70100;44.486;0.266;2023-12-20T08:01:01;2.37;;;1.10;;
77531;SDS011;70100;44.486;0.266;2023-12-20T08:12:06;1.37;;;0.87;;
77531;SDS011;70100;44.486;0.266;2023-12-20T08:17:38;1.67;;;0.87;;
77531;SDS011;70100;44.486;0.266;2023-12-20T08:23:12;5.97;;;0.97;;
77531;SDS011;70100;44.486;0.266;2023-12-20T08:28:44;4.70;;;1.10;;
77531;SDS011;70100;44.486;0.266;2023-12-20T08:34:18;4.33;;;1.13;;
77531;SDS011;70100;44.486;0.266;2023-12-20T08:39:51;6.57;;;0.80;;
77531;SDS011;70100;44.486;0.266;2023-12-20T08:45:24;1.97;;;1.13;;
77531;SDS011;70100;44.486;0.266;2023-12-20T08:50:57;3.77;;;1.00;;
77531;SDS011;70100;44.486;0.266;2023-12-20T09:02:02;7.37;;;1.07;;
77531;SDS011;70100;44.486;0.266;2023-12-20T09:07:35;7.50;;;1.00;;
77531;SDS011;70100;44.486;0.266;2023-12-20T09:13:08;4.17;;;1.20;;
77531;SDS011;70100;44.486;0.266;2023-12-20T09:18:41;4.67;;;0.93;;
77531;SDS011;70100;44.486;0.266;2023-12-20T09:24:15;5.30;;;1.53;;
77531;SDS011;70100;44.486;0.266;2023-12-20T09:29:49;4.60;;;1.13;;
77531;SDS011;70100;44.486;0.266;2023-12-20T09:35:20;-1.00;;;-1.00;;
77531;SDS011;70100;44.486;0.266;2023-12-20T09:46:26;5.40;;;1.10;;
77531;SDS011;70100;44.486;0.266;2023-12-20T09:57:31;3.13;;;1.20;;
77531;SDS011;70100;44.486;0.266;2023-12-20T10:03:04;3.13;;;1.03;;
77531;SDS011;70100;44.486;0.266;2023-12-20T10:08:36;6.37;;;1.47;;
77531;SDS011;70100;44.486;0.266;2023-12-20T10:14:10;4.60;;;1.30;;
77531;SDS011;70100;44.486;0.266;2023-12-20T10:19:42;5.00;;;1.10;;
77531;SDS011;70100;44.486;0.266;2023-12-20T10:25:14;-1.00;;;-1.00;;
77531;SDS011;70100;44.486;0.266;2023-12-20T10:30:49;5.47;;;1.20;;
77531;SDS011;70100;44.486;0.266;2023-12-20T10:36:23;9.60;;;2.20;;
77531;SDS011;70100;44.486;0.266;2023-12-20T10:41:56;7.43;;;1.30;;
77531;SDS011;70100;44.486;0.266;2023-12-20T10:47:28;6.47;;;0.90;;
77531;SDS011;70100;44.486;0.266;2023-12-20T10:53:01;3.87;;;1.60;;
77531;SDS011;70100;44.486;0.266;2023-12-20T10:58:34;5.80;;;1.60;;
77531;SDS011;70100;44.486;0.266;2023-12-20T11:04:08;-1.00;;;-1.00;;
77531;SDS011;70100;44.486;0.266;2023-12-20T11:09:40;6.17;;;1.43;;
77531;SDS011;70100;44.486;0.266;2023-12-20T11:15:10;2.37;;;1.30;;
77531;SDS011;70100;44.486;0.266;2023-12-20T11:20:42;5.60;;;1.20;;
77531;SDS011;70100;44.486;0.266;2023-12-20T11:26:15;6.20;;;1.23;;
77531;SDS011;70100;44.486;0.266;2023-12-20T11:31:48;3.60;;;1.23;;
77531;SDS011;70100;44.486;0.266;2023-12-20T11:37:22;4.60;;;1.33;;
77531;SDS011;70100;44.486;0.266;2023-12-20T11:42:54;16.17;;;6.43;;
77531;SDS011;70100;44.486;0.266;2023-12-20T11:48:27;3.80;;;1.23;;
77531;SDS011;70100;44.486;0.266;2023-12-20T11:54:00;6.17;;;2.57;;
77531;SDS011;70100;44.486;0.266;2023-12-20T11:59:31;4.80;;;2.00;;
77531;SDS011;70100;44.486;0.266;2023-12-20T12:05:05;9.17;;;1.40;;
77531;SDS011;70100;44.486;0.266;2023-12-20T12:10:36;4.57;;;1.47;;
77531;SDS011;70100;44.486;0.266;2023-12-20T12:16:09;4.37;;;1.23;;
77531;SDS011;70100;44.486;0.266;2023-12-20T12:21:41;4.50;;;1.40;;
77531;SDS011;70100;44.486;0.266;2023-12-20T12:27:14;6.63;;;1.23;;
77531;SDS011;70100;44.486;0.266;2023-12-20T12:32:47;5.47;;;1.83;;
77531;SDS011;70100;44.486;0.266;2023-12-20T12:38:22;5.03;;;1.50;;
77531;SDS011;70100;44.486;0.266;2023-12-20T12:43:53;-1.00;;;-1.00;;
77531;SDS011;70100;44.486;0.266;2023-12-20T12:54:58;-1.00;;;-1.00;;
77531;SDS011;70100;44.486;0.266;2023-12-20T13:00:33;5.53;;;1.10;;
77531;SDS011;70100;44.486;0.266;2023-12-20T13:06:06;-1.00;;;-1.00;;
77531;SDS011;70100;44.486;0.266;2023-12-20T13:11:36;1.93;;;0.90;;
77531;SDS011;70100;44.486;0.266;2023-12-20T13:17:07;6.63;;;1.93;;
77531;SDS011;70100;44.486;0.266;2023-12-20T13:22:41;-1.00;;;-1.00;;
77531;SDS011;70100;44.486;0.266;2023-12-20T13:28:13;6.90;;;1.30;;
77531;SDS011;70100;44.486;0.266;2023-12-20T13:33:45;6.67;;;1.77;;
77531;SDS011;70100;44.486;0.266;2023-12-20T13:39:16;8.70;;;3.33;;
77531;SDS011;70100;44.486;0.266;2023-12-20T13:44:49;-1.00;;;-1.00;;
77531;SDS011;70100;44.486;0.266;2023-12-20T13:50:22;3.63;;;1.00;;
77531;SDS011;70100;44.486;0.266;2023-12-20T13:55:55;2.83;;;1.23;;
77531;SDS011;70100;44.486;0.266;2023-12-20T14:01:30;6.27;;;0.90;;
77531;SDS011;70100;44.486;0.266;2023-12-20T14:07:00;5.83;;;2.03;;
77531;SDS011;70100;44.486;0.266;2023-12-20T14:12:36;6.67;;;1.60;;
77531;SDS011;70100;44.486;0.266;2023-12-20T14:18:06;4.20;;;1.80;;
77531;SDS011;70100;44.486;0.266;2023-12-20T14:23:36;10.30;;;2.37;;
77531;SDS011;70100;44.486;0.266;2023-12-20T14:29:09;4.33;;;1.53;;
77531;SDS011;70100;44.486;0.266;2023-12-20T14:34:42;4.20;;;2.07;;
77531;SDS011;70100;44.486;0.266;2023-12-20T14:40:16;6.17;;;1.50;;
77531;SDS011;70100;44.486;0.266;2023-12-20T14:45:47;11.60;;;1.90;;
77531;SDS011;70100;44.486;0.266;2023-12-20T14:51:21;1.60;;;1.20;;
77531;SDS011;70100;44.486;0.266;2023-12-20T14:56:55;5.57;;;1.20;;
77531;SDS011;70100;44.486;0.266;2023-12-20T15:02:28;2.43;;;0.70;;
77531;SDS011;70100;44.486;0.266;2023-12-20T15:07:59;4.77;;;1.00;;
77531;SDS011;70100;44.486;0.266;2023-12-20T15:13:32;4.60;;;1.60;;
77531;SDS011;70100;44.486;0.266;2023-12-20T15:19:04;8.37;;;1.20;;
77531;SDS011;70100;44.486;0.266;2023-12-20T15:24:40;4.47;;;1.20;;
77531;SDS011;70100;44.486;0.266;2023-12-20T15:30:11;1.50;;;0.77;;
77531;SDS011;70100;44.486;0.266;2023-12-20T15:35:43;5.00;;;1.77;;
77531;SDS011;70100;44.486;0.266;2023-12-20T15:41:17;14.20;;;7.37;;
77531;SDS011;70100;44.486;0.266;2023-12-20T15:46:48;21.87;;;8.17;;
77531;SDS011;70100;44.486;0.266;2023-12-20T15:52:21;16.23;;;7.37;;
77531;SDS011;70100;44.486;0.266;2023-12-20T15:57:54;7.87;;;2.93;;
77531;SDS011;70100;44.486;0.266;2023-12-20T16:03:28;10.20;;;5.10;;
77531;SDS011;70100;44.486;0.266;2023-12-20T16:09:00;8.87;;;3.60;;
77531;SDS011;70100;44.486;0.266;2023-12-20T16:14:33;6.63;;;3.23;;
77531;SDS011;70100;44.486;0.266;2023-12-20T16:20:06;14.53;;;4.10;;
77531;SDS011;70100;44.486;0.266;2023-12-20T16:25:39;8.83;;;2.30;;
77531;SDS011;70100;44.486;0.266;2023-12-20T16:31:12;5.17;;;1.40;;
77531;SDS011;70100;44.486;0.266;2023-12-20T16:36:50;-1.00;;;-1.00;;
77531;SDS011;70100;44.486;0.266;2023-12-20T16:42:18;4.33;;;1.00;;
77531;SDS011;70100;44.486;0.266;2023-12-20T16:47:50;12.93;;;1.97;;
77531;SDS011;70100;44.486;0.266;2023-12-20T16:53:24;9.40;;;1.13;;
77531;SDS011;70100;44.486;0.266;2023-12-20T16:58:56;7.63;;;1.90;;
77531;SDS011;70100;44.486;0.266;2023-12-20T17:04:31;7.23;;;1.67;;
77531;SDS011;70100;44.486;0.266;2023-12-20T17:10:01;5.80;;;4.93;;
77531;SDS011;70100;44.486;0.266;2023-12-20T17:15:33;5.77;;;1.93;;
77531;SDS011;70100;44.486;0.266;2023-12-20T17:21:05;4.33;;;2.60;;
77531;SDS011;70100;44.486;0.266;2023-12-20T17:26:38;12.03;;;3.70;;
77531;SDS011;70100;44.486;0.266;2023-12-20T17:32:11;4.97;;;3.07;;
77531;SDS011;70100;44.486;0.266;2023-12-20T17:37:43;6.80;;;2.93;;
77531;SDS011;70100;44.486;0.266;2023-12-20T17:43:15;19.40;;;8.87;;
77531;SDS011;70100;44.486;0.266;2023-12-20T17:48:49;11.60;;;4.00;;
77531;SDS011;70100;44.486;0.266;2023-12-20T17:54:22;10.27;;;5.23;;
77531;SDS011;70100;44.486;0.266;2023-12-20T17:59:54;9.20;;;4.70;;
77531;SDS011;70100;44.486;0.266;2023-12-20T18:05:26;8.63;;;3.40;;
77531;SDS011;70100;44.486;0.266;2023-12-20T18:10:59;48.63;;;38.63;;
77531;SDS011;70100;44.486;0.266;2023-12-20T18:16:31;23.80;;;14.67;;
77531;SDS011;70100;44.486;0.266;2023-12-20T18:22:05;13.17;;;9.00;;
77531;SDS011;70100;44.486;0.266;2023-12-20T18:27:37;7.57;;;3.73;;
77531;SDS011;70100;44.486;0.266;2023-12-20T18:33:10;10.33;;;4.17;;
77531;SDS011;70100;44.486;0.266;2023-12-20T18:44:18;-1.00;;;-1.00;;
77531;SDS011;70100;44.486;0.266;2023-12-20T18:49:51;6.30;;;2.93;;
77531;SDS011;70100;44.486;0.266;2023-12-20T18:55:22;8.80;;;2.47;;
77531;SDS011;70100;44.486;0.266;2023-12-20T19:00:55;8.83;;;2.30;;
77531;SDS011;70100;44.486;0.266;2023-12-20T19:06:28;7.30;;;3.03;;
77531;SDS011;70100;44.486;0.266;2023-12-20T19:12:01;6.77;;;2.77;;
77531;SDS011;70100;44.486;0.266;2023-12-20T19:17:33;5.30;;;2.30;;
77531;SDS011;70100;44.486;0.266;2023-12-20T19:23:07;8.23;;;2.77;;
77531;SDS011;70100;44.486;0.266;2023-12-20T19:28:39;-1.00;;;-1.00;;
77531;SDS011;70100;44.486;0.266;2023-12-20T19:34:12;5.93;;;2.97;;
77531;SDS011;70100;44.486;0.266;2023-12-20T19:39:45;7.50;;;2.77;;
77531;SDS011;70100;44.486;0.266;2023-12-20T19:45:18;10.00;;;3.00;;
77531;SDS011;70100;44.486;0.266;2023-12-20T19:50:52;3.33;;;2.10;;
77531;SDS011;70100;44.486;0.266;2023-12-20T19:56:24;4.83;;;1.60;;
77531;SDS011;70100;44.486;0.266;2023-12-20T20:01:56;5.17;;;1.53;;
77531;SDS011;70100;44.486;0.266;2023-12-20T20:07:28;2.93;;;1.80;;
77531;SDS011;70100;44.486;0.266;2023-12-20T20:13:01;3.23;;;2.33;;
77531;SDS011;70100;44.486;0.266;2023-12-20T20:18:33;11.87;;;2.80;;
77531;SDS011;70100;44.486;0.266;2023-12-20T20:24:06;5.00;;;1.97;;
77531;SDS011;70100;44.486;0.266;2023-12-20T20:29:39;-1.00;;;-1.00;;
77531;SDS011;70100;44.486;0.266;2023-12-20T20:35:11;8.50;;;2.47;;
77531;SDS011;70100;44.486;0.266;2023-12-20T20:40:45;11.43;;;2.30;;
77531;SDS011;70100;44.486;0.266;2023-12-20T20:46:19;7.63;;;2.63;;
77531;SDS011;70100;44.486;0.266;2023-12-20T20:51:52;10.07;;;3.80;;
77531;SDS011;70100;44.486;0.266;2023-12-20T20:57:26;-1.00;;;-1.00;;
77531;SDS011;70100;44.486;0.266;2023-12-20T21:03:00;7.10;;;1.80;;
77531;SDS011;70100;44.486;0.266;2023-12-20T21:08:31;3.73;;;2.37;;
77531;SDS011;70100;44.486;0.266;2023-12-20T21:14:05;4.67;;;2.57;;
77531;SDS011;70100;44.486;0.266;2023-12-20T21:19:38;4.73;;;1.57;;
77531;SDS011;70100;44.486;0.266;2023-12-20T21:25:11;6.00;;;2.10;;
77531;SDS011;70100;44.486;0.266;2023-12-20T21:30:43;7.30;;;1.87;;
77531;SDS011;70100;44.486;0.266;2023-12-20T21:36:15;6.67;;;2.60;;
77531;SDS011;70100;44.486;0.266;2023-12-20T21:41:50;9.40;;;2.20;;
77531;SDS011;70100;44.486;0.266;2023-12-20T21:47:21;7.87;;;2.87;;
77531;SDS011;70100;44.486;0.266;2023-12-20T21:52:53;3.73;;;2.90;;
77531;SDS011;70100;44.486;0.266;2023-12-20T21:58:27;6.33;;;1.70;;
77531;SDS011;70100;44.486;0.266;2023-12-20T22:04:00;7.30;;;2.60;;
77531;SDS011;70100;44.486;0.266;2023-12-20T22:09:32;10.07;;;4.33;;
77531;SDS011;70100;44.486;0.266;2023-12-20T22:15:06;6.20;;;2.77;;
77531;SDS011;70100;44.486;0.266;2023-12-20T22:20:40;8.07;;;2.47;;
77531;SDS011;70100;44.486;0.266;2023-12-20T22:26:11;11.40;;;3.17;;
77531;SDS011;70100;44.486;0.266;2023-12-20T22:31:43;8.97;;;2.30;;
77531;SDS011;70100;44.486;0.266;2023-12-20T22:37:15;12.73;;;3.07;;
77531;SDS011;70100;44.486;0.266;2023-12-20T22:42:48;8.00;;;3.27;;
77531;SDS011;70100;44.486;0.266;2023-12-20T22:48:19;6.40;;;2.07;;
77531;SDS011;70100;44.486;0.266;2023-12-20T22:53:52;7.33;;;2.13;;
77531;SDS011;70100;44.486;0.266;2023-12-20T22:59:26;2.10;;;1.90;;
77531;SDS011;70100;44.486;0.266;2023-12-20T23:04:58;4.10;;;1.63;;
77531;SDS011;70100;44.486;0.266;2023-12-20T23:10:32;-1.00;;;-1.00;;
77531;SDS011;70100;44.486;0.266;2023-12-20T23:16:03;1.67;;;1.23;;
77531;SDS011;70100;44.486;0.266;2023-12-20T23:21:35;5.40;;;3.87;;
77531;SDS011;70100;44.486;0.266;2023-12-20T23:27:09;-1.00;;;-1.00;;
77531;SDS011;70100;44.486;0.266;2023-12-20T23:32:41;1.70;;;1.20;;
77531;SDS011;70100;44.486;0.266;2023-12-20T23:38:14;1.67;;;1.47;;
77531;SDS011;70100;44.486;0.266;2023-12-20T23:43:45;4.23;;;1.97;;
77531;SDS011;70100;44.486;0.266;2023-12-20T23:49:20;4.60;;;2.13;;
77531;SDS011;70100;44.486;0.266;2023-12-20T23:54:51;2.67;;;1.70;;
